logo
Rechercher aéroport 
image banner adimage banner adimage banner ad
image banner ad

LOLY - Oamtc/Ybbsitz

Situé à District Amstetten, Austria

ICAO - , IATA -

Données fournies par Airmate  

Information générale

Coordonnées: N47°58'9" E14°56'22"
Élévation : 1982 feet MSL.
 
Voir autres Aéroports à Lower Austria

Données opérationnelles

Special qualification required
Heure actuelle UTC:
Heure actuelle locale:
Météo à : LOWL - Linz ( 63 km )
METAR: LOWL 220820Z AUTO 24006KT 9999 FEW022 SCT026 BKN060 15/12 Q1012 NOSIG
TAF: TAF LOWL 220515Z 2206/2306 27010KT 9999 BKN030 TX20/2215Z TN12/2303Z PROB40 TEMPO 2212/2217 29015G25KT SHRA BECMG 2218/2220 27005KT PROB30 TEMPO 2302/2306 0800 BCFG BKN008
Voir NOTAMs / SUP AIP / TFR affectant cet aéroport [VIEW]
Fréquences de communication: [VIEW]

Pistes:

Coordonnées de l'aéroport

Adresse: District Amstetten Austria

Vue satellite de LOLY